Terminal Aerodrome Forecast
Issued by NWS

Home | Current Version | Previous Version | Text Only | Print | Product List | Glossary On
Versions: 1 2 3 4 5 6 7 8 9 10 11 12 13 14 15 16 17 18
632
FTAK31 PAJN 160536
TAFAJN
TAF
PAJN 160536Z 1606/1706 10012KT P6SM -SHRA BKN030 OVC040
     FM160900 10015G20KT 5SM -RA BR BKN015 OVC025
     FM161200 11022G32KT 3SM RA BR BKN008 OVC015
     FM161800 11015G20KT 3SM RA BR BKN008 OVC015
     FM162200 11012KT 4SM -RA BR SCT008 OVC015
     FM170100 10010KT 4SM -RA BR OVC015=

USA.gov is the U.S. government's official web portal to all federal, state and local government web resources and services.